Terminal Aerodrome Forecast
Issued by NWS Shreveport, LA

Home | Current Version | Previous Version | Text Only | Print | Product List | Glossary On
Versions: 1 2 3 4 5 6 7 8 9 10 11 12 13 14 15 16
000
FTUS44 KSHV 020522
TAFGGG
TAF
KGGG 020522Z 0206/0306 17012KT P6SM SCT018
     FM020800 18012KT 5SM BR SCT015
      TEMPO 0210/0214 2SM BR OVC015
     FM021600 19015G25KT P6SM SCT025 OVC035=

USA.gov is the U.S. government's official web portal to all federal, state and local government web resources and services.